Reading, Illinois
Current Conditions -  °F | °C
As of 10:15 AM on Thursday 27 Nov 2014 (Local Time) from KPNT Reporting Station
Unknown Precip Unknown Precip  
Wind Chill: -8°   Ceiling: 1500
Heat Index: -2°   Visibility: 10mi
Dew Point: -5°   Wind: 13mph
Humidity: 80%   Direction: 310°NW
Pressure: 30.39"   Gusts: NA
Location:  41.0465°N, 88.8725°W
Report Text: KPNT 271615Z AUTO 31011KT 10SM UP BKN015 OVC035 M02/M05 A3039 RMK AO2 T10191049
Loading
Personal Weather Stations






























Interactive Weather Map New forecast layout! Learn more

10-Day Weather Forecast

Advertisements
Track Severe Weather on mobile